Time;durP1;ratioP1;P1;durP2;ratioP2;P2;SDS_P1;SDS_P2;PMS_P1;PMS_P2;Temp;Humidity;BMP_temperature;BMP_pressure;BME280_temperature;BME280_humidity;BME280_pressure;Samples;Min_cycle;Max_cycle;Signal;HPM_P1;HPM_P2
2021/11/14 00:00:31;;;;;;;4.95;3.90;;;;;;;;;;5032904;28;20544;-49
2021/11/14 00:02:58;;;;;;;4.13;3.60;;;;;;;;;;5032621;28;20219;-49
2021/11/14 00:05:24;;;;;;;4.07;3.53;;;;;;;;;;5034678;28;20230;-50
2021/11/14 00:07:50;;;;;;;5.28;3.88;;;;;;;;;;5036903;28;20270;-48
2021/11/14 00:10:17;;;;;;;4.55;3.95;;;;;;;;;;5035643;28;20182;-50
2021/11/14 00:12:43;;;;;;;5.88;3.83;;;;;;;;;;5037139;28;20183;-50
2021/11/14 00:15:09;;;;;;;4.38;3.83;;;;;;;;;;5035945;28;20211;-50
2021/11/14 00:17:36;;;;;;;5.40;4.18;;;;;;;;;;5036733;28;20275;-50
2021/11/14 00:20:04;;;;;;;6.15;4.10;;;;;;;;;;5037005;28;20187;-50
2021/11/14 00:22:30;;;;;;;4.10;3.70;;;;;;;;;;5036850;28;20208;-50
2021/11/14 00:24:56;;;;;;;4.40;3.65;;;;;;;;;;5036389;28;20182;-50
2021/11/14 00:27:22;;;;;;;5.50;3.55;;;;;;;;;;5035277;28;20172;-49
2021/11/14 00:29:49;;;;;;;4.97;3.70;;;;;;;;;;5036135;28;20432;-49
2021/11/14 00:32:15;;;;;;;5.25;3.78;;;;;;;;;;5036769;28;20187;-49
2021/11/14 00:34:42;;;;;;;4.95;3.75;;;;;;;;;;5035971;28;20290;-50
2021/11/14 00:37:08;;;;;;;7.55;3.80;;;;;;;;;;5036672;28;20796;-50
2021/11/14 00:39:34;;;;;;;4.38;3.25;;;;;;;;;;5036264;28;20279;-50
2021/11/14 00:42:00;;;;;;;3.90;3.50;;;;;;;;;;5036374;28;20283;-49
2021/11/14 00:44:26;;;;;;;5.97;3.63;;;;;;;;;;5026594;28;20204;-50
2021/11/14 00:46:52;;;;;;;4.25;3.60;;;;;;;;;;5034867;28;20231;-50
2021/11/14 00:49:18;;;;;;;3.60;3.22;;;;;;;;;;5036158;28;20180;-50
2021/11/14 00:51:44;;;;;;;3.88;3.33;;;;;;;;;;5036352;28;20265;-49
2021/11/14 00:54:10;;;;;;;5.95;3.10;;;;;;;;;;5035939;28;20184;-50
2021/11/14 00:56:36;;;;;;;4.00;3.60;;;;;;;;;;5035932;28;20193;-50
2021/11/14 00:59:03;;;;;;;3.42;3.13;;;;;;;;;;5036111;28;20582;-50
2021/11/14 01:01:29;;;;;;;3.70;3.33;;;;;;;;;;5033349;28;20187;-49
2021/11/14 01:03:55;;;;;;;4.63;3.20;;;;;;;;;;5035350;28;20200;-50
2021/11/14 01:06:21;;;;;;;4.32;3.38;;;;;;;;;;5035945;28;20602;-48
2021/11/14 01:08:48;;;;;;;4.07;3.50;;;;;;;;;;5031552;28;20323;-49
2021/11/14 01:11:14;;;;;;;4.78;3.60;;;;;;;;;;5018724;28;20165;-49
2021/11/14 01:13:41;;;;;;;3.58;3.28;;;;;;;;;;5035403;28;20194;-50
2021/11/14 01:16:08;;;;;;;3.33;3.00;;;;;;;;;;5034765;28;20172;-49
2021/11/14 01:18:34;;;;;;;3.60;3.25;;;;;;;;;;5035613;28;20191;-50
2021/11/14 01:21:01;;;;;;;5.00;3.10;;;;;;;;;;5036120;28;20175;-50
2021/11/14 01:23:28;;;;;;;4.20;3.13;;;;;;;;;;5034477;28;20222;-50
2021/11/14 01:25:54;;;;;;;5.18;3.33;;;;;;;;;;5035334;28;20491;-49
2021/11/14 01:28:20;;;;;;;3.67;3.22;;;;;;;;;;5035390;28;20176;-48
2021/11/14 01:30:48;;;;;;;4.65;3.03;;;;;;;;;;5035420;28;20559;-50
2021/11/14 01:33:14;;;;;;;3.92;3.47;;;;;;;;;;5034992;28;20189;-50
2021/11/14 01:35:41;;;;;;;3.33;3.03;;;;;;;;;;5035835;28;20254;-50
2021/11/14 01:38:07;;;;;;;3.42;3.00;;;;;;;;;;5036466;28;20191;-49
2021/11/14 01:40:39;;;;;;;3.42;3.13;;;;;;;;;;5033653;28;20263;-49
2021/11/14 01:43:06;;;;;;;4.38;3.17;;;;;;;;;;5034240;28;20222;-50
2021/11/14 01:45:32;;;;;;;4.13;2.95;;;;;;;;;;5035017;28;20168;-48
2021/11/14 01:47:58;;;;;;;4.68;3.40;;;;;;;;;;5035268;28;20211;-49
2021/11/14 01:50:24;;;;;;;3.75;3.42;;;;;;;;;;5035343;28;20279;-50
2021/11/14 01:52:51;;;;;;;3.22;2.92;;;;;;;;;;5034292;28;20180;-50
2021/11/14 01:55:19;;;;;;;3.20;2.90;;;;;;;;;;5035020;28;20190;-49
2021/11/14 01:57:45;;;;;;;3.70;3.15;;;;;;;;;;5034828;28;20188;-50
2021/11/14 02:00:14;;;;;;;4.15;2.80;;;;;;;;;;5035077;28;20570;-49
2021/11/14 02:02:40;;;;;;;3.85;3.15;;;;;;;;;;5034773;28;20214;-50
2021/11/14 02:05:06;;;;;;;3.75;3.10;;;;;;;;;;5034442;28;20263;-50
2021/11/14 02:07:32;;;;;;;3.22;2.80;;;;;;;;;;5034611;28;20219;-50
2021/11/14 02:09:58;;;;;;;3.20;2.90;;;;;;;;;;5035026;28;20184;-50
2021/11/14 02:12:24;;;;;;;3.35;3.05;;;;;;;;;;5033405;28;20215;-50
2021/11/14 02:14:51;;;;;;;4.15;3.33;;;;;;;;;;5032166;28;20180;-50
2021/11/14 02:17:17;;;;;;;3.00;2.72;;;;;;;;;;5034629;28;20188;-49
2021/11/14 02:19:48;;;;;;;3.20;2.90;;;;;;;;;;5034808;28;20590;-50
2021/11/14 02:22:14;;;;;;;3.58;3.28;;;;;;;;;;5034638;28;20227;-50
2021/11/14 02:24:41;;;;;;;3.90;2.85;;;;;;;;;;5034009;28;20213;-49
2021/11/14 02:27:07;;;;;;;3.17;2.88;;;;;;;;;;5034217;28;20178;-49
2021/11/14 02:29:33;;;;;;;4.15;3.10;;;;;;;;;;5032688;28;20175;-49
2021/11/14 02:31:59;;;;;;;3.40;2.72;;;;;;;;;;5034205;28;20180;-50
2021/11/14 02:34:25;;;;;;;3.20;2.90;;;;;;;;;;5033718;28;20188;-50
2021/11/14 02:36:51;;;;;;;3.13;2.90;;;;;;;;;;5034001;28;20180;-49
2021/11/14 02:39:17;;;;;;;3.50;2.85;;;;;;;;;;5034412;28;20211;-50
2021/11/14 02:41:43;;;;;;;3.38;3.08;;;;;;;;;;5033817;28;20621;-50
2021/11/14 02:44:10;;;;;;;3.45;3.08;;;;;;;;;;5033677;28;20610;-49
2021/11/14 02:46:36;;;;;;;3.50;3.20;;;;;;;;;;5031799;28;20752;-49
2021/11/14 02:49:02;;;;;;;2.90;2.70;;;;;;;;;;5033970;28;20183;-48
2021/11/14 02:51:29;;;;;;;3.40;3.10;;;;;;;;;;5034030;28;20176;-50
2021/11/14 02:53:56;;;;;;;5.03;3.00;;;;;;;;;;5033393;28;20269;-50
2021/11/14 02:56:22;;;;;;;3.60;2.70;;;;;;;;;;5033975;28;20165;-50
2021/11/14 02:58:48;;;;;;;3.28;2.97;;;;;;;;;;5033966;28;20200;-50
2021/11/14 03:01:19;;;;;;;3.97;3.03;;;;;;;;;;5027221;28;20544;-50
2021/11/14 03:03:47;;;;;;;2.90;2.70;;;;;;;;;;5032793;28;20625;-50
2021/11/14 03:06:14;;;;;;;3.53;3.08;;;;;;;;;;5033891;28;20172;-50
2021/11/14 03:08:40;;;;;;;3.35;3.05;;;;;;;;;;5033997;28;20533;-49
2021/11/14 03:11:06;;;;;;;3.40;3.05;;;;;;;;;;5019699;28;20190;-50
2021/11/14 03:13:32;;;;;;;3.30;3.00;;;;;;;;;;5033140;28;20188;-50
2021/11/14 03:15:59;;;;;;;3.60;2.83;;;;;;;;;;5032922;28;20203;-50
2021/11/14 03:18:26;;;;;;;3.22;2.92;;;;;;;;;;5033813;28;20185;-50
2021/11/14 03:20:52;;;;;;;2.95;2.75;;;;;;;;;;5033857;28;20228;-50
2021/11/14 03:23:19;;;;;;;3.35;3.05;;;;;;;;;;5032914;28;20542;-49
2021/11/14 03:25:46;;;;;;;2.70;2.50;;;;;;;;;;5033047;28;20191;-50
2021/11/14 03:28:12;;;;;;;3.03;2.80;;;;;;;;;;5033678;28;20184;-50
2021/11/14 03:30:39;;;;;;;3.15;2.85;;;;;;;;;;5033351;28;20202;-50
2021/11/14 03:33:06;;;;;;;3.00;2.70;;;;;;;;;;5032825;28;20267;-50
2021/11/14 03:35:44;;;;;;;3.15;2.70;;;;;;;;;;5033612;28;20179;-50
2021/11/14 03:38:11;;;;;;;2.83;2.63;;;;;;;;;;5033391;28;20207;-49
2021/11/14 03:40:37;;;;;;;2.97;2.67;;;;;;;;;;5026505;28;20646;-50
2021/11/14 03:43:03;;;;;;;2.78;2.58;;;;;;;;;;5023899;28;20195;-50
2021/11/14 03:45:29;;;;;;;3.25;2.92;;;;;;;;;;5032903;28;20246;-50
2021/11/14 03:47:55;;;;;;;3.08;2.88;;;;;;;;;;5033284;28;20475;-50
2021/11/14 03:50:22;;;;;;;2.90;2.70;;;;;;;;;;5033580;28;20609;-50
2021/11/14 03:52:48;;;;;;;3.28;2.60;;;;;;;;;;5033020;28;20238;-49
2021/11/14 03:55:15;;;;;;;2.88;2.58;;;;;;;;;;5023224;28;20184;-50
2021/11/14 03:57:42;;;;;;;3.05;2.83;;;;;;;;;;5028702;28;20528;-49
2021/11/14 04:00:13;;;;;;;3.30;3.00;;;;;;;;;;5032941;28;20567;-50
2021/11/14 04:02:39;;;;;;;3.03;2.78;;;;;;;;;;5020656;28;20246;-48
2021/11/14 04:05:05;;;;;;;3.13;2.83;;;;;;;;;;5032600;28;20567;-50
2021/11/14 04:07:31;;;;;;;2.80;2.60;;;;;;;;;;5032974;28;20208;-49
2021/11/14 04:09:57;;;;;;;3.38;2.97;;;;;;;;;;5019484;28;20188;-50
2021/11/14 04:12:23;;;;;;;2.95;2.75;;;;;;;;;;5025758;28;20515;-49
2021/11/14 04:14:49;;;;;;;2.90;2.60;;;;;;;;;;5032556;28;20180;-50
2021/11/14 04:17:15;;;;;;;2.80;2.60;;;;;;;;;;5033531;28;20195;-49
2021/11/14 04:19:41;;;;;;;2.80;2.60;;;;;;;;;;5033399;28;20508;-49
2021/11/14 04:22:07;;;;;;;2.67;2.45;;;;;;;;;;5032974;28;20198;-49
2021/11/14 04:24:33;;;;;;;3.15;2.85;;;;;;;;;;5031835;28;20184;-49
2021/11/14 04:26:59;;;;;;;2.72;2.50;;;;;;;;;;5033427;28;20172;-50
2021/11/14 04:29:25;;;;;;;2.63;2.42;;;;;;;;;;5032937;28;20198;-48
2021/11/14 04:31:51;;;;;;;2.72;2.53;;;;;;;;;;5032894;28;20180;-50
2021/11/14 04:34:17;;;;;;;2.88;2.58;;;;;;;;;;5032738;28;20211;-50
2021/11/14 04:36:43;;;;;;;3.10;2.80;;;;;;;;;;5032043;28;20510;-49
2021/11/14 04:39:09;;;;;;;2.60;2.40;;;;;;;;;;5013612;28;20173;-50
2021/11/14 04:41:35;;;;;;;2.42;2.15;;;;;;;;;;5018457;28;20183;-50
2021/11/14 04:44:01;;;;;;;3.10;2.67;;;;;;;;;;5032267;28;20208;-50
2021/11/14 04:46:27;;;;;;;2.72;2.53;;;;;;;;;;5032708;28;20494;-50
2021/11/14 04:48:53;;;;;;;3.03;2.72;;;;;;;;;;5033007;28;20172;-50
2021/11/14 04:51:19;;;;;;;2.45;2.30;;;;;;;;;;5034088;28;20247;-49
2021/11/14 04:53:46;;;;;;;2.95;2.65;;;;;;;;;;5036012;28;20670;-48
2021/11/14 04:56:12;;;;;;;2.67;2.47;;;;;;;;;;5038804;28;20190;-50
2021/11/14 04:58:38;;;;;;;2.70;2.50;;;;;;;;;;5048322;28;20187;-50
2021/11/14 05:01:04;;;;;;;2.88;2.60;;;;;;;;;;5036676;28;20492;-48
2021/11/14 05:03:30;;;;;;;2.63;2.42;;;;;;;;;;5032744;28;20236;-50
2021/11/14 05:05:57;;;;;;;3.33;2.53;;;;;;;;;;5016717;28;20169;-50
2021/11/14 05:08:24;;;;;;;3.20;2.90;;;;;;;;;;5036457;28;20187;-50
2021/11/14 05:10:50;;;;;;;2.60;2.40;;;;;;;;;;5036365;28;20233;-50
2021/11/14 05:13:17;;;;;;;2.90;2.50;;;;;;;;;;5034727;28;20203;-50
2021/11/14 05:15:43;;;;;;;2.83;2.63;;;;;;;;;;5035968;28;20470;-49
2021/11/14 05:18:09;;;;;;;2.70;2.50;;;;;;;;;;5035400;28;20510;-50
2021/11/14 05:20:35;;;;;;;2.50;2.30;;;;;;;;;;5035683;28;20187;-49
2021/11/14 05:23:02;;;;;;;3.17;2.80;;;;;;;;;;5035275;28;20211;-50
2021/11/14 05:25:28;;;;;;;2.60;2.40;;;;;;;;;;5035234;28;20180;-50
2021/11/14 05:27:54;;;;;;;2.65;2.45;;;;;;;;;;5035954;28;20440;-50
2021/11/14 05:30:20;;;;;;;2.78;2.53;;;;;;;;;;5035993;28;20701;-49
2021/11/14 05:32:46;;;;;;;3.53;2.42;;;;;;;;;;5034594;28;20189;-49
2021/11/14 05:35:12;;;;;;;3.97;2.60;;;;;;;;;;5035500;28;20187;-50
2021/11/14 05:37:39;;;;;;;2.90;2.35;;;;;;;;;;5035704;28;20176;-49
2021/11/14 05:40:06;;;;;;;2.40;2.20;;;;;;;;;;5028305;28;20187;-50
2021/11/14 05:42:32;;;;;;;2.80;2.60;;;;;;;;;;5029010;28;20285;-50
2021/11/14 05:44:58;;;;;;;2.63;2.42;;;;;;;;;;5034831;28;20204;-50
2021/11/14 05:47:25;;;;;;;3.00;2.40;;;;;;;;;;5034484;28;20253;-48
2021/11/14 05:49:51;;;;;;;2.60;2.40;;;;;;;;;;5035721;28;20171;-50
2021/11/14 05:52:17;;;;;;;2.88;2.60;;;;;;;;;;5030433;28;20617;-50
2021/11/14 05:54:43;;;;;;;2.78;2.40;;;;;;;;;;5034508;28;20180;-50
2021/11/14 05:57:09;;;;;;;2.63;2.42;;;;;;;;;;5034950;28;20470;-50
2021/11/14 05:59:49;;;;;;;2.60;2.40;;;;;;;;;;5035316;28;20182;-50
2021/11/14 06:02:37;;;;;;;2.60;2.40;;;;;;;;;;5033466;28;20199;-49
2021/11/14 06:05:17;;;;;;;2.92;2.70;;;;;;;;;;5034458;28;20172;-50
2021/11/14 06:07:43;;;;;;;2.55;2.35;;;;;;;;;;5034828;28;20202;-49
2021/11/14 06:10:10;;;;;;;2.88;2.67;;;;;;;;;;5034750;28;20342;-50
2021/11/14 06:12:37;;;;;;;2.42;2.22;;;;;;;;;;5034760;28;20180;-50
2021/11/14 06:15:05;;;;;;;2.50;2.30;;;;;;;;;;5033617;28;20183;-50
2021/11/14 06:17:31;;;;;;;2.75;2.50;;;;;;;;;;5034448;28;20202;-49
2021/11/14 06:19:57;;;;;;;2.97;2.67;;;;;;;;;;5034208;28;20448;-50
2021/11/14 06:22:23;;;;;;;2.60;2.40;;;;;;;;;;5034525;28;20353;-49
2021/11/14 06:24:49;;;;;;;2.58;2.35;;;;;;;;;;5033704;28;20351;-50
2021/11/14 06:27:15;;;;;;;2.42;2.22;;;;;;;;;;5034495;28;20179;-49
2021/11/14 06:29:41;;;;;;;2.67;2.47;;;;;;;;;;5034164;28;20171;-50
2021/11/14 06:32:07;;;;;;;3.60;2.40;;;;;;;;;;5034412;28;20226;-49
2021/11/14 06:34:33;;;;;;;2.92;2.72;;;;;;;;;;5033914;28;20235;-50
2021/11/14 06:36:59;;;;;;;2.60;2.40;;;;;;;;;;5034246;28;20202;-50
2021/11/14 06:39:25;;;;;;;2.88;2.53;;;;;;;;;;5034581;28;20187;-50
2021/11/14 06:41:51;;;;;;;2.90;2.58;;;;;;;;;;5034152;28;20210;-50
2021/11/14 06:44:17;;;;;;;2.83;2.45;;;;;;;;;;5025510;28;20176;-48
2021/11/14 06:46:43;;;;;;;2.70;2.50;;;;;;;;;;5033858;28;20188;-49
2021/11/14 06:49:09;;;;;;;2.63;2.42;;;;;;;;;;5033993;28;20188;-50
2021/11/14 06:51:35;;;;;;;5.20;2.60;;;;;;;;;;5033554;28;20518;-50
2021/11/14 06:54:01;;;;;;;3.95;2.97;;;;;;;;;;5033802;28;20571;-50
2021/11/14 06:56:27;;;;;;;3.80;2.80;;;;;;;;;;5034184;28;20234;-49
2021/11/14 06:58:53;;;;;;;2.53;2.33;;;;;;;;;;5033565;28;20459;-50
2021/11/14 07:01:19;;;;;;;3.60;2.80;;;;;;;;;;5032897;28;20282;-50
2021/11/14 07:03:45;;;;;;;5.15;3.00;;;;;;;;;;5033458;28;20230;-49
2021/11/14 07:06:11;;;;;;;5.05;3.13;;;;;;;;;;5033900;28;20172;-49
2021/11/14 07:08:37;;;;;;;3.10;2.60;;;;;;;;;;5034050;28;20215;-50
2021/11/14 07:11:03;;;;;;;7.30;3.17;;;;;;;;;;5033448;28;20579;-49
2021/11/14 07:13:31;;;;;;;4.65;2.95;;;;;;;;;;5033032;28;20188;-49
2021/11/14 07:15:57;;;;;;;4.32;2.75;;;;;;;;;;5033083;28;20595;-49
2021/11/14 07:18:23;;;;;;;4.43;3.03;;;;;;;;;;5033718;28;20196;-50
2021/11/14 07:20:49;;;;;;;5.55;3.00;;;;;;;;;;5033921;28;20218;-49
2021/11/14 07:23:15;;;;;;;5.20;2.83;;;;;;;;;;5033326;28;20211;-50
2021/11/14 07:25:41;;;;;;;4.22;3.33;;;;;;;;;;5033127;28;20172;-50
2021/11/14 07:28:07;;;;;;;5.03;2.90;;;;;;;;;;5032889;28;20547;-49
2021/11/14 07:30:33;;;;;;;5.32;2.83;;;;;;;;;;5033774;28;20164;-49
2021/11/14 07:32:59;;;;;;;4.35;3.00;;;;;;;;;;5032735;28;20175;-49
2021/11/14 07:35:26;;;;;;;4.35;3.00;;;;;;;;;;5033404;28;20176;-50
2021/11/14 07:37:52;;;;;;;4.93;3.05;;;;;;;;;;5033449;28;20183;-49
2021/11/14 07:40:21;;;;;;;5.05;3.10;;;;;;;;;;5025829;28;20184;-50
2021/11/14 07:42:47;;;;;;;4.45;2.80;;;;;;;;;;5029028;28;20286;-50
2021/11/14 07:45:14;;;;;;;3.63;3.05;;;;;;;;;;5032624;28;20872;-50
2021/11/14 07:47:40;;;;;;;5.70;3.10;;;;;;;;;;5032047;28;20219;-49
2021/11/14 07:50:07;;;;;;;4.68;2.90;;;;;;;;;;5033363;28;20176;-49
2021/11/14 07:52:33;;;;;;;4.13;2.80;;;;;;;;;;5033513;28;20191;-49
2021/11/14 07:54:59;;;;;;;6.00;2.80;;;;;;;;;;5032688;28;20498;-48
2021/11/14 07:57:25;;;;;;;6.57;2.58;;;;;;;;;;5033432;28;20184;-49
2021/11/14 07:59:51;;;;;;;4.18;3.08;;;;;;;;;;5033241;28;20171;-49
2021/11/14 08:02:18;;;;;;;5.80;3.28;;;;;;;;;;5033032;28;20211;-48
2021/11/14 08:04:44;;;;;;;5.20;3.28;;;;;;;;;;5032893;28;20188;-49
2021/11/14 08:07:10;;;;;;;3.97;2.75;;;;;;;;;;5033036;28;20190;-50
2021/11/14 08:09:36;;;;;;;3.67;2.92;;;;;;;;;;5022168;28;20597;-49
2021/11/14 08:12:02;;;;;;;3.40;2.78;;;;;;;;;;5033119;28;20187;-49
2021/11/14 08:14:28;;;;;;;4.45;3.22;;;;;;;;;;5032723;28;20219;-49
2021/11/14 08:16:54;;;;;;;2.88;2.58;;;;;;;;;;5033475;28;20205;-48
2021/11/14 08:19:20;;;;;;;5.63;3.05;;;;;;;;;;5046360;28;20547;-50
2021/11/14 08:21:46;;;;;;;4.15;3.17;;;;;;;;;;5040812;28;20237;-50
2021/11/14 08:24:12;;;;;;;3.22;2.78;;;;;;;;;;5032669;28;20493;-50
2021/11/14 08:26:38;;;;;;;3.90;2.83;;;;;;;;;;5035264;28;20218;-49
2021/11/14 08:29:04;;;;;;;3.13;2.83;;;;;;;;;;5036845;28;20210;-50
2021/11/14 08:31:30;;;;;;;3.20;2.72;;;;;;;;;;5036859;28;20183;-50
2021/11/14 08:33:56;;;;;;;3.30;2.72;;;;;;;;;;5036575;28;20598;-50
2021/11/14 08:36:26;;;;;;;3.22;2.92;;;;;;;;;;5034189;28;20203;-49
2021/11/14 08:38:52;;;;;;;3.83;3.17;;;;;;;;;;5028567;28;20286;-50
2021/11/14 08:41:18;;;;;;;3.78;3.03;;;;;;;;;;5036514;28;20501;-50
2021/11/14 08:43:45;;;;;;;4.40;3.08;;;;;;;;;;5035937;28;20217;-49
2021/11/14 08:46:11;;;;;;;7.15;2.95;;;;;;;;;;5036327;28;20566;-50
2021/11/14 08:48:37;;;;;;;5.07;3.10;;;;;;;;;;5036191;28;20183;-50
2021/11/14 08:51:04;;;;;;;3.53;2.70;;;;;;;;;;5036468;28;20229;-49
2021/11/14 08:53:30;;;;;;;3.50;3.20;;;;;;;;;;5035515;28;20232;-50
2021/11/14 08:55:56;;;;;;;5.70;2.90;;;;;;;;;;5036281;28;20219;-50
2021/11/14 08:58:23;;;;;;;4.85;3.63;;;;;;;;;;5036146;28;20569;-50
2021/11/14 09:00:49;;;;;;;5.10;3.35;;;;;;;;;;5035583;28;20184;-50
2021/11/14 09:03:15;;;;;;;6.00;3.20;;;;;;;;;;5035758;28;20196;-50
2021/11/14 09:05:41;;;;;;;5.22;3.33;;;;;;;;;;5036202;28;20168;-49
2021/11/14 09:08:07;;;;;;;6.43;3.50;;;;;;;;;;5035962;28;20200;-49
2021/11/14 09:10:35;;;;;;;5.50;3.30;;;;;;;;;;5033186;28;20180;-50
2021/11/14 09:13:01;;;;;;;5.63;3.33;;;;;;;;;;5035743;28;20188;-49
2021/11/14 09:15:29;;;;;;;6.70;3.38;;;;;;;;;;5035826;28;20241;-49
2021/11/14 09:17:55;;;;;;;5.78;3.22;;;;;;;;;;5036087;28;20594;-50
2021/11/14 09:20:21;;;;;;;5.68;3.28;;;;;;;;;;5035875;28;20180;-49
2021/11/14 09:22:48;;;;;;;4.82;3.38;;;;;;;;;;5035465;28;20299;-50
2021/11/14 09:25:14;;;;;;;3.25;2.80;;;;;;;;;;5035430;28;20186;-50
2021/11/14 09:27:40;;;;;;;7.10;3.28;;;;;;;;;;5020582;28;20857;-50
2021/11/14 09:30:07;;;;;;;4.13;3.35;;;;;;;;;;5035334;28;20180;-50
2021/11/14 09:32:33;;;;;;;4.78;3.00;;;;;;;;;;5035921;28;20215;-50
2021/11/14 09:34:59;;;;;;;7.55;3.35;;;;;;;;;;5035245;28;20199;-49
2021/11/14 09:37:28;;;;;;;6.82;3.40;;;;;;;;;;5034597;28;20210;-49
2021/11/14 09:39:54;;;;;;;12.23;3.20;;;;;;;;;;5035062;28;20179;-50
2021/11/14 09:42:20;;;;;;;4.97;3.00;;;;;;;;;;5035443;28;20211;-50
2021/11/14 09:44:46;;;;;;;7.22;3.25;;;;;;;;;;5032036;28;20183;-49
2021/11/14 09:47:14;;;;;;;5.53;3.35;;;;;;;;;;5029577;28;20567;-50
2021/11/14 09:49:40;;;;;;;5.95;3.05;;;;;;;;;;5035144;28;20199;-50
2021/11/14 09:52:07;;;;;;;15.30;3.35;;;;;;;;;;5035018;28;20179;-49
2021/11/14 09:54:33;;;;;;;6.25;3.22;;;;;;;;;;5035170;28;20179;-50
2021/11/14 09:56:59;;;;;;;5.28;3.28;;;;;;;;;;5035487;28;20258;-50
2021/11/14 09:59:26;;;;;;;3.97;2.78;;;;;;;;;;5032168;28;20177;-50
2021/11/14 10:01:53;;;;;;;5.45;3.08;;;;;;;;;;5029240;28;20562;-50
2021/11/14 10:04:20;;;;;;;5.00;2.83;;;;;;;;;;5034287;28;20253;-50
2021/11/14 10:06:56;;;;;;;2.97;2.60;;;;;;;;;;5034933;28;20720;-49
2021/11/14 10:09:33;;;;;;;7.43;3.30;;;;;;;;;;5035286;28;20566;-50
2021/11/14 10:12:10;;;;;;;5.45;3.13;;;;;;;;;;5035064;28;20180;-50
2021/11/14 10:14:36;;;;;;;7.78;2.80;;;;;;;;;;5034485;28;20203;-50
2021/11/14 10:17:13;;;;;;;4.25;2.70;;;;;;;;;;5030875;28;20176;-50
2021/11/14 10:19:39;;;;;;;5.65;3.15;;;;;;;;;;5034873;28;20784;-50
2021/11/14 10:22:05;;;;;;;3.15;2.83;;;;;;;;;;5034670;28;20252;-50
2021/11/14 10:24:32;;;;;;;4.75;3.05;;;;;;;;;;5034374;28;20254;-49
2021/11/14 10:27:08;;;;;;;5.88;2.90;;;;;;;;;;5034706;28;20175;-50
2021/11/14 10:29:37;;;;;;;4.50;2.75;;;;;;;;;;5034416;28;20249;-49
2021/11/14 10:32:10;;;;;;;4.78;2.78;;;;;;;;;;5033836;28;20180;-50
2021/11/14 10:34:46;;;;;;;3.75;2.63;;;;;;;;;;5033251;28;20307;-49
2021/11/14 10:37:12;;;;;;;4.35;2.85;;;;;;;;;;5034544;28;20184;-49
2021/11/14 10:39:39;;;;;;;3.10;2.63;;;;;;;;;;5034456;28;20554;-50
2021/11/14 10:42:11;;;;;;;3.53;2.65;;;;;;;;;;5034468;28;20689;-50
2021/11/14 10:44:44;;;;;;;3.00;2.70;;;;;;;;;;5034233;28;20168;-49
2021/11/14 10:47:11;;;;;;;3.70;2.90;;;;;;;;;;5034154;28;20195;-49
2021/11/14 10:49:36;;;;;;;6.35;3.00;;;;;;;;;;5026627;28;20203;-50
2021/11/14 10:52:03;;;;;;;4.07;2.60;;;;;;;;;;5023776;28;20436;-50
2021/11/14 10:54:29;;;;;;;3.78;2.80;;;;;;;;;;5034223;28;20168;-48
2021/11/14 10:57:01;;;;;;;3.83;2.85;;;;;;;;;;5034104;28;20175;-49
2021/11/14 10:59:27;;;;;;;5.35;2.65;;;;;;;;;;5034298;28;20206;-48
2021/11/14 11:01:53;;;;;;;7.63;2.67;;;;;;;;;;5033593;28;20551;-50
2021/11/14 11:04:23;;;;;;;3.30;2.83;;;;;;;;;;5033524;28;20198;-49
2021/11/14 11:06:52;;;;;;;3.05;2.55;;;;;;;;;;5033589;28;20176;-49
2021/11/14 11:09:18;;;;;;;2.60;2.40;;;;;;;;;;5033773;28;20218;-50
2021/11/14 11:11:44;;;;;;;3.17;2.55;;;;;;;;;;5033678;28;20255;-50
2021/11/14 11:14:11;;;;;;;4.18;2.60;;;;;;;;;;5033779;28;20168;-49
2021/11/14 11:16:37;;;;;;;3.08;2.50;;;;;;;;;;5033920;28;20509;-50
2021/11/14 11:19:03;;;;;;;4.00;2.28;;;;;;;;;;5034154;28;20188;-50
2021/11/14 11:21:31;;;;;;;3.25;2.65;;;;;;;;;;5037913;28;20244;-50
2021/11/14 11:24:06;;;;;;;3.55;2.80;;;;;;;;;;5040233;28;20203;-50
2021/11/14 11:26:32;;;;;;;2.83;2.40;;;;;;;;;;5033826;28;20456;-50
2021/11/14 11:28:58;;;;;;;3.13;2.83;;;;;;;;;;5033191;28;20176;-50
2021/11/14 11:31:24;;;;;;;3.90;2.65;;;;;;;;;;5033934;28;20550;-50
2021/11/14 11:33:54;;;;;;;3.25;2.15;;;;;;;;;;5032484;28;20183;-50
2021/11/14 11:36:20;;;;;;;3.47;2.50;;;;;;;;;;5033622;28;20266;-49
2021/11/14 11:38:47;;;;;;;5.75;2.47;;;;;;;;;;5033092;28;20262;-50
2021/11/14 11:41:13;;;;;;;3.75;2.65;;;;;;;;;;5033751;28;20164;-49
2021/11/14 11:43:42;;;;;;;3.00;2.60;;;;;;;;;;5032561;28;20294;-49
2021/11/14 11:46:15;;;;;;;3.05;2.20;;;;;;;;;;5033454;28;20198;-49
2021/11/14 11:48:46;;;;;;;2.85;2.45;;;;;;;;;;5033938;28;20186;-50
2021/11/14 11:51:14;;;;;;;3.38;2.83;;;;;;;;;;5033536;28;20551;-49
2021/11/14 11:53:40;;;;;;;3.30;2.42;;;;;;;;;;5033138;28;20563;-50
2021/11/14 11:56:17;;;;;;;6.55;2.90;;;;;;;;;;5031787;28;20257;-50
2021/11/14 11:58:44;;;;;;;2.60;2.38;;;;;;;;;;5033698;28;20459;-48
2021/11/14 12:01:20;;;;;;;2.85;2.40;;;;;;;;;;5035042;28;20202;-49
2021/11/14 12:03:46;;;;;;;2.63;2.42;;;;;;;;;;5036784;28;20207;-50
2021/11/14 12:06:27;;;;;;;3.97;2.55;;;;;;;;;;5037207;28;20252;-49
2021/11/14 12:08:55;;;;;;;3.58;2.40;;;;;;;;;;5037444;28;20456;-49
2021/11/14 12:11:29;;;;;;;3.63;2.15;;;;;;;;;;5037173;28;20444;-49
2021/11/14 12:13:56;;;;;;;4.30;2.45;;;;;;;;;;5036825;28;20206;-50
2021/11/14 12:16:30;;;;;;;3.03;2.53;;;;;;;;;;5036772;28;20187;-50
2021/11/14 12:18:57;;;;;;;3.53;2.40;;;;;;;;;;5037438;28;20206;-50
2021/11/14 12:21:24;;;;;;;2.38;2.17;;;;;;;;;;5037334;28;20204;-49
2021/11/14 12:23:54;;;;;;;2.95;2.22;;;;;;;;;;5036656;28;20215;-49
2021/11/14 12:26:28;;;;;;;3.72;2.58;;;;;;;;;;5036660;28;20225;-49
2021/11/14 12:28:55;;;;;;;2.42;2.22;;;;;;;;;;5035367;28;20180;-50
2021/11/14 12:31:26;;;;;;;3.80;2.30;;;;;;;;;;5036602;28;20178;-49
2021/11/14 12:33:55;;;;;;;2.08;1.95;;;;;;;;;;5036547;28;20175;-50
2021/11/14 12:36:34;;;;;;;2.40;2.20;;;;;;;;;;5033513;28;20227;-50
2021/11/14 12:39:15;;;;;;;2.58;2.17;;;;;;;;;;5036656;28;20712;-50
2021/11/14 12:41:48;;;;;;;2.20;2.00;;;;;;;;;;5035707;28;20285;-48
2021/11/14 12:44:24;;;;;;;2.65;2.10;;;;;;;;;;5033393;28;20207;-50
2021/11/14 12:46:50;;;;;;;2.83;1.95;;;;;;;;;;5035030;28;20799;-49
2021/11/14 12:49:16;;;;;;;3.03;2.15;;;;;;;;;;5036319;28;20188;-49
2021/11/14 12:51:50;;;;;;;3.95;2.47;;;;;;;;;;5036536;28;20578;-51
2021/11/14 12:54:16;;;;;;;3.45;2.45;;;;;;;;;;5035956;28;20314;-49
2021/11/14 12:56:45;;;;;;;3.67;2.13;;;;;;;;;;5036278;28;20183;-50
2021/11/14 12:59:17;;;;;;;2.80;2.25;;;;;;;;;;5036293;28;20226;-50
2021/11/14 13:01:44;;;;;;;5.05;2.13;;;;;;;;;;5028830;28;20184;-49
2021/11/14 13:04:21;;;;;;;4.97;2.38;;;;;;;;;;5027338;28;20238;-50
2021/11/14 13:06:48;;;;;;;6.68;2.40;;;;;;;;;;5036237;28;20184;-49
2021/11/14 13:09:18;;;;;;;3.50;2.72;;;;;;;;;;5036341;28;20510;-49
2021/11/14 13:11:44;;;;;;;6.00;2.50;;;;;;;;;;5036040;28;20578;-50
2021/11/14 13:14:11;;;;;;;7.13;2.53;;;;;;;;;;5035650;28;20448;-50
2021/11/14 13:16:37;;;;;;;4.85;2.40;;;;;;;;;;5035254;28;20222;-49
2021/11/14 13:19:06;;;;;;;4.80;2.13;;;;;;;;;;5034012;28;20191;-49
2021/11/14 13:21:36;;;;;;;7.47;2.47;;;;;;;;;;5035414;28;20215;-51
2021/11/14 13:24:14;;;;;;;2.92;2.10;;;;;;;;;;5035448;28;20207;-49
2021/11/14 13:26:42;;;;;;;5.22;2.65;;;;;;;;;;5035354;28;20207;-49
2021/11/14 13:29:28;;;;;;;3.03;2.10;;;;;;;;;;5035256;28;20176;-49
2021/11/14 13:31:56;;;;;;;2.70;2.10;;;;;;;;;;5035382;28;20176;-50
2021/11/14 13:34:24;;;;;;;6.07;2.10;;;;;;;;;;5033572;28;20184;-50
2021/11/14 13:37:00;;;;;;;5.53;2.20;;;;;;;;;;5027702;28;20176;-49
2021/11/14 13:39:28;;;;;;;6.18;2.33;;;;;;;;;;5035226;28;20180;-49
2021/11/14 13:41:57;;;;;;;5.22;2.40;;;;;;;;;;5032016;28;20632;-49
2021/11/14 13:44:35;;;;;;;4.82;2.05;;;;;;;;;;5020991;28;20548;-50
2021/11/14 13:47:06;;;;;;;5.15;2.05;;;;;;;;;;5027991;28;20661;-51
2021/11/14 13:49:33;;;;;;;6.78;2.00;;;;;;;;;;5035489;28;20583;-49
2021/11/14 13:52:00;;;;;;;7.18;2.17;;;;;;;;;;5034013;28;20625;-50
2021/11/14 13:54:27;;;;;;;3.95;2.30;;;;;;;;;;5026575;28;20176;-51
2021/11/14 13:56:53;;;;;;;6.25;2.03;;;;;;;;;;5035286;28;20598;-50
2021/11/14 13:59:19;;;;;;;4.65;2.42;;;;;;;;;;5035316;28;20178;-49
2021/11/14 14:01:55;;;;;;;3.33;2.00;;;;;;;;;;5035361;28;20426;-49
2021/11/14 14:04:21;;;;;;;2.63;2.00;;;;;;;;;;5034381;28;20230;-49
2021/11/14 14:06:57;;;;;;;3.00;2.10;;;;;;;;;;5032454;28;20175;-51
2021/11/14 14:09:23;;;;;;;4.30;1.73;;;;;;;;;;5025249;28;20610;-49
2021/11/14 14:11:49;;;;;;;5.68;2.72;;;;;;;;;;5034772;28;20184;-48
2021/11/14 14:14:16;;;;;;;2.45;1.80;;;;;;;;;;5025384;28;20611;-49
2021/11/14 14:16:43;;;;;;;3.38;2.25;;;;;;;;;;5025220;28;20184;-50
2021/11/14 14:19:09;;;;;;;6.07;2.25;;;;;;;;;;5035068;28;20178;-49
2021/11/14 14:21:35;;;;;;;3.90;2.30;;;;;;;;;;5034147;28;20184;-50
2021/11/14 14:24:03;;;;;;;3.85;2.08;;;;;;;;;;5032522;28;20243;-50
2021/11/14 14:26:29;;;;;;;6.03;2.25;;;;;;;;;;5034516;28;20186;-49
2021/11/14 14:28:56;;;;;;;5.28;1.80;;;;;;;;;;5033965;28;20188;-49
2021/11/14 14:31:24;;;;;;;3.63;1.50;;;;;;;;;;5033687;28;20258;-49
2021/11/14 14:33:52;;;;;;;4.97;1.70;;;;;;;;;;5024835;28;20194;-50
2021/11/14 14:36:18;;;;;;;13.35;2.40;;;;;;;;;;5033833;28;20579;-49
2021/11/14 14:38:44;;;;;;;3.38;1.90;;;;;;;;;;5034682;28;20333;-49
2021/11/14 14:41:11;;;;;;;4.85;1.90;;;;;;;;;;5039939;28;20179;-49
2021/11/14 14:43:37;;;;;;;2.30;1.95;;;;;;;;;;5035650;28;20200;-49